createdAt,value
2023-03-22T00:01:13.195Z,14.13
2023-03-22T00:03:39.856Z,14.11
2023-03-22T00:06:06.346Z,14.06
2023-03-22T00:08:32.772Z,14.01
2023-03-22T00:10:59.255Z,13.90
2023-03-22T00:13:25.726Z,13.93
2023-03-22T00:15:54.653Z,13.99
2023-03-22T00:18:21.211Z,13.95
2023-03-22T00:20:47.625Z,13.88
2023-03-22T00:23:14.077Z,13.83
2023-03-22T00:25:40.509Z,13.78
2023-03-22T00:28:06.928Z,13.73
2023-03-22T00:30:33.299Z,13.79
2023-03-22T00:32:59.665Z,13.73
2023-03-22T00:35:26.095Z,13.71
2023-03-22T00:37:52.500Z,13.69
2023-03-22T00:40:18.934Z,13.67
2023-03-22T00:42:45.298Z,13.67
2023-03-22T00:45:11.669Z,13.64
2023-03-22T00:47:38.022Z,13.66
2023-03-22T00:50:04.344Z,13.68
2023-03-22T00:52:30.662Z,13.64
2023-03-22T00:54:57.009Z,13.59
2023-03-22T00:57:23.351Z,13.54
2023-03-22T00:59:49.722Z,13.49
2023-03-22T01:02:16.070Z,13.46
2023-03-22T01:04:42.404Z,13.45
2023-03-22T01:12:39.415Z,13.30
2023-03-22T01:15:05.877Z,13.36
2023-03-22T01:17:32.278Z,13.39
2023-03-22T01:19:58.693Z,13.36
2023-03-22T01:22:25.058Z,13.43
2023-03-22T01:24:51.392Z,13.47
2023-03-22T01:27:17.755Z,13.16
2023-03-22T01:29:44.313Z,13.17
2023-03-22T01:32:10.643Z,13.32
2023-03-22T01:34:36.965Z,13.43
2023-03-22T01:37:03.285Z,13.54
2023-03-22T01:39:29.685Z,13.59
2023-03-22T01:41:56.052Z,13.60
2023-03-22T01:44:22.371Z,13.59
2023-03-22T01:49:44.265Z,13.55
2023-03-22T01:52:10.653Z,13.47
2023-03-22T01:54:37.068Z,13.53
2023-03-22T01:57:03.453Z,13.53
2023-03-22T01:59:29.863Z,13.50
2023-03-22T02:01:56.274Z,13.50
2023-03-22T02:04:22.680Z,13.51
2023-03-22T02:06:49.153Z,13.45
2023-03-22T02:09:16.002Z,13.46
2023-03-22T02:14:27.355Z,13.44
2023-03-22T02:16:53.978Z,13.44
2023-03-22T02:19:20.437Z,13.31
2023-03-22T02:21:46.886Z,13.32
2023-03-22T02:24:13.367Z,13.35
2023-03-22T02:26:39.913Z,13.29
2023-03-22T02:31:46.804Z,13.33
2023-03-22T02:34:13.368Z,13.27
2023-03-22T02:36:39.762Z,13.32
2023-03-22T02:39:06.203Z,13.34
2023-03-22T02:41:32.617Z,13.32
2023-03-22T02:43:59.045Z,13.30
2023-03-22T02:46:25.417Z,13.27
2023-03-22T02:48:51.843Z,13.28
2023-03-22T02:51:18.246Z,13.31
2023-03-22T02:53:44.668Z,13.30
2023-03-22T02:56:11.118Z,13.25
2023-03-22T02:58:37.555Z,13.27
2023-03-22T03:01:03.963Z,13.32
2023-03-22T03:03:30.435Z,13.25
2023-03-22T03:05:56.926Z,13.26
2023-03-22T03:08:23.426Z,13.25
2023-03-22T03:10:49.803Z,13.22
2023-03-22T03:13:16.441Z,13.17
2023-03-22T03:15:43.053Z,13.14
2023-03-22T03:18:09.466Z,13.11
2023-03-22T03:20:35.949Z,13.09
2023-03-22T03:23:02.513Z,13.03
2023-03-22T03:25:30.276Z,12.98
2023-03-22T03:28:05.931Z,13.00
2023-03-22T03:30:32.448Z,13.02
2023-03-22T03:32:58.934Z,13.01
2023-03-22T03:35:25.449Z,12.96
2023-03-22T03:37:53.068Z,12.93
2023-03-22T03:40:19.444Z,12.93
2023-03-22T03:42:45.914Z,12.86
2023-03-22T03:45:12.385Z,12.70
2023-03-22T03:47:46.134Z,12.77
2023-03-22T03:50:12.581Z,12.87
2023-03-22T03:52:38.933Z,12.95
2023-03-22T03:55:05.396Z,12.92
2023-03-22T03:57:32.023Z,12.97
2023-03-22T03:59:59.628Z,12.91
2023-03-22T04:02:27.037Z,12.90
2023-03-22T04:04:53.531Z,12.85
2023-03-22T04:07:21.311Z,12.69
2023-03-22T04:09:47.788Z,12.72
2023-03-22T04:12:14.266Z,12.72
2023-03-22T04:14:40.792Z,12.70
2023-03-22T04:17:07.282Z,12.72
2023-03-22T04:19:33.735Z,12.66
2023-03-22T04:22:00.288Z,12.62
2023-03-22T04:24:35.739Z,12.56
2023-03-22T04:27:02.234Z,12.57
2023-03-22T04:29:28.740Z,12.56
2023-03-22T04:31:55.181Z,12.60
2023-03-22T04:34:21.743Z,12.60
2023-03-22T04:36:48.186Z,12.59
2023-03-22T04:39:14.639Z,12.61
2023-03-22T04:41:41.122Z,12.60
2023-03-22T04:44:07.605Z,12.54
2023-03-22T04:46:34.158Z,12.52
2023-03-22T04:49:00.654Z,12.37
2023-03-22T04:51:27.091Z,12.28
2023-03-22T04:53:53.487Z,12.29
2023-03-22T04:56:19.861Z,12.36
2023-03-22T04:58:46.202Z,12.42
2023-03-22T05:01:12.596Z,12.43
2023-03-22T05:03:38.971Z,12.45
2023-03-22T05:06:05.394Z,12.47
2023-03-22T05:08:31.743Z,12.44
2023-03-22T05:10:58.106Z,12.43
2023-03-22T05:13:24.496Z,12.47
2023-03-22T05:15:51.272Z,12.47
2023-03-22T05:18:17.671Z,12.47
2023-03-22T05:20:44.052Z,12.48
2023-03-22T05:23:10.424Z,12.46
2023-03-22T05:25:36.763Z,12.43
2023-03-22T05:28:03.120Z,12.40
2023-03-22T05:30:29.462Z,12.32
2023-03-22T05:33:00.727Z,12.30
2023-03-22T05:35:42.302Z,12.34
2023-03-22T05:38:09.086Z,12.38
2023-03-22T05:40:35.440Z,12.35
2023-03-22T05:43:01.824Z,12.34
2023-03-22T05:45:28.218Z,12.26
2023-03-22T05:50:35.030Z,12.22
2023-03-22T05:53:01.526Z,12.24
2023-03-22T05:55:27.942Z,12.31
2023-03-22T05:57:54.301Z,12.37
2023-03-22T06:00:20.660Z,12.34
2023-03-22T06:02:47.111Z,12.30
2023-03-22T06:05:13.635Z,12.36
2023-03-22T06:07:40.210Z,12.32
2023-03-22T06:10:06.673Z,12.28
2023-03-22T06:12:33.038Z,12.24
2023-03-22T06:14:59.553Z,12.18
2023-03-22T06:17:25.986Z,12.16
2023-03-22T06:19:54.736Z,12.13
2023-03-22T06:22:21.140Z,12.13
2023-03-22T06:24:47.571Z,12.10
2023-03-22T06:27:14.026Z,12.12
2023-03-22T06:29:40.490Z,12.10
2023-03-22T06:32:06.929Z,12.11
2023-03-22T06:34:33.347Z,12.10
2023-03-22T06:36:59.685Z,12.08
2023-03-22T06:39:26.053Z,12.07
2023-03-22T06:41:52.559Z,12.10
2023-03-22T06:44:22.156Z,12.10
2023-03-22T06:46:48.501Z,12.12
2023-03-22T06:49:14.906Z,12.14
2023-03-22T06:51:41.370Z,12.15
2023-03-22T06:54:07.741Z,12.18
2023-03-22T06:56:34.130Z,12.16
2023-03-22T06:59:01.903Z,12.17
2023-03-22T07:01:28.360Z,12.17
2023-03-22T07:03:54.750Z,12.20
2023-03-22T07:06:21.124Z,12.24
2023-03-22T07:08:47.535Z,12.27
2023-03-22T07:11:13.962Z,12.31
2023-03-22T07:13:40.392Z,12.34
2023-03-22T07:16:06.754Z,12.35
2023-03-22T07:18:33.230Z,12.43
2023-03-22T07:20:59.575Z,12.45
2023-03-22T07:23:25.979Z,12.47
2023-03-22T07:25:52.386Z,12.47
2023-03-22T07:28:18.778Z,12.46
2023-03-22T07:36:25.764Z,12.41
2023-03-22T07:38:52.156Z,12.14
2023-03-22T07:41:19.461Z,12.22
2023-03-22T07:43:55.197Z,12.29
2023-03-22T07:49:19.360Z,12.27
2023-03-22T07:51:45.755Z,12.29
2023-03-22T07:54:15.787Z,12.33
2023-03-22T07:56:49.187Z,12.33
2023-03-22T07:59:15.570Z,12.26
2023-03-22T08:01:49.292Z,12.27
2023-03-22T08:04:16.778Z,12.34
2023-03-22T08:06:43.429Z,12.42
2023-03-22T08:09:09.829Z,12.45
2023-03-22T08:11:39.654Z,12.48
2023-03-22T08:14:07.541Z,12.53
2023-03-22T08:16:34.175Z,12.50
2023-03-22T08:19:00.591Z,12.55
2023-03-22T08:21:27.024Z,12.58
2023-03-22T08:23:53.878Z,12.60
2023-03-22T08:26:21.379Z,12.63
2023-03-22T08:31:43.250Z,12.69
2023-03-22T08:34:15.426Z,12.70
2023-03-22T08:36:41.948Z,12.78
2023-03-22T08:39:08.439Z,12.84
2023-03-22T08:41:34.877Z,12.77
2023-03-22T08:44:01.273Z,12.68
2023-03-22T08:46:29.883Z,12.53
2023-03-22T08:48:56.360Z,12.63
2023-03-22T08:51:23.064Z,12.61
2023-03-22T08:53:50.382Z,12.37
2023-03-22T08:56:16.857Z,12.29
2023-03-22T08:58:43.254Z,12.29
2023-03-22T09:01:09.971Z,12.30
2023-03-22T09:03:36.421Z,12.24
2023-03-22T09:06:02.839Z,12.24
2023-03-22T09:08:29.246Z,12.24
2023-03-22T09:10:55.670Z,12.29
2023-03-22T09:13:22.125Z,12.24
2023-03-22T09:15:48.616Z,12.33
2023-03-22T09:18:15.125Z,12.36
2023-03-22T09:20:41.879Z,12.37
2023-03-22T09:23:08.477Z,12.37
2023-03-22T09:25:34.938Z,12.36
2023-03-22T09:28:04.387Z,12.40
2023-03-22T09:30:30.832Z,12.43
2023-03-22T09:32:57.213Z,12.40
2023-03-22T09:35:23.691Z,12.41
2023-03-22T09:37:50.162Z,12.43
2023-03-22T09:40:16.523Z,12.40
2023-03-22T09:42:42.973Z,12.40
2023-03-22T09:45:09.384Z,12.42
2023-03-22T09:47:44.281Z,12.37
2023-03-22T09:50:11.333Z,12.40
2023-03-22T09:52:37.728Z,12.36
2023-03-22T09:55:04.122Z,12.32
2023-03-22T09:57:30.521Z,12.26
2023-03-22T09:59:56.896Z,12.27
2023-03-22T10:02:23.336Z,12.31
2023-03-22T10:04:49.854Z,12.37
2023-03-22T10:07:16.269Z,12.37
2023-03-22T10:09:42.673Z,12.34
2023-03-22T10:12:12.921Z,12.33
2023-03-22T10:14:39.344Z,12.33
2023-03-22T10:17:05.814Z,12.32
2023-03-22T10:19:32.260Z,12.24
2023-03-22T10:21:58.646Z,12.17
2023-03-22T10:24:25.019Z,12.11
2023-03-22T10:26:53.365Z,12.12
2023-03-22T10:29:19.796Z,12.14
2023-03-22T10:31:46.281Z,12.16
2023-03-22T10:34:13.065Z,12.30
2023-03-22T10:36:39.484Z,12.26
2023-03-22T10:39:05.833Z,12.35
2023-03-22T10:41:32.205Z,12.46
2023-03-22T10:43:58.620Z,12.48
2023-03-22T10:46:25.050Z,12.54
2023-03-22T10:48:51.433Z,12.58
2023-03-22T10:51:17.852Z,12.62
2023-03-22T10:53:44.278Z,12.61
2023-03-22T10:56:10.696Z,12.65
2023-03-22T10:58:37.169Z,12.68
2023-03-22T11:01:03.583Z,12.73
2023-03-22T11:03:29.985Z,12.71
2023-03-22T11:05:56.328Z,12.74
2023-03-22T11:08:22.813Z,12.82
2023-03-22T11:10:58.366Z,12.77
2023-03-22T11:13:24.804Z,12.82
2023-03-22T11:15:51.277Z,12.72
2023-03-22T11:18:18.824Z,12.79
2023-03-22T11:20:45.235Z,12.79
2023-03-22T11:23:11.583Z,12.74
2023-03-22T11:25:37.966Z,12.77
2023-03-22T11:28:04.375Z,12.80
2023-03-22T11:30:30.699Z,12.89
2023-03-22T11:32:57.056Z,12.91
2023-03-22T11:35:23.428Z,12.91
2023-03-22T11:37:49.845Z,12.88
2023-03-22T11:40:16.260Z,12.95
2023-03-22T11:42:42.727Z,13.02
2023-03-22T11:45:09.273Z,13.06
2023-03-22T11:47:35.694Z,13.20
2023-03-22T11:50:02.105Z,13.23
2023-03-22T11:52:28.483Z,13.32
2023-03-22T11:54:54.852Z,13.43
2023-03-22T11:57:21.222Z,13.50
2023-03-22T11:59:47.660Z,13.49
2023-03-22T12:02:14.101Z,13.64
2023-03-22T12:04:40.612Z,13.67
2023-03-22T12:07:06.961Z,13.79
2023-03-22T12:09:35.217Z,13.89
2023-03-22T12:12:01.613Z,13.97
2023-03-22T12:14:28.046Z,14.07
2023-03-22T12:16:54.392Z,14.07
2023-03-22T12:19:20.790Z,14.16
2023-03-22T12:21:47.226Z,14.18
2023-03-22T12:24:13.572Z,14.16
2023-03-22T12:26:39.916Z,14.12
2023-03-22T12:29:06.264Z,14.14
2023-03-22T12:31:32.641Z,14.13
2023-03-22T12:33:59.055Z,14.23
2023-03-22T12:36:27.055Z,14.26
2023-03-22T12:38:55.978Z,14.28
2023-03-22T12:41:22.434Z,14.28
2023-03-22T12:43:48.853Z,14.29
2023-03-22T12:46:15.386Z,14.35
2023-03-22T12:48:49.900Z,14.38
2023-03-22T12:51:16.364Z,14.44
2023-03-22T12:53:42.770Z,14.52
2023-03-22T12:56:09.195Z,14.52
2023-03-22T12:58:35.544Z,14.49
2023-03-22T13:01:01.972Z,14.50
2023-03-22T13:03:28.540Z,14.54
2023-03-22T13:05:55.219Z,14.50
2023-03-22T13:08:21.575Z,14.55
2023-03-22T13:10:47.946Z,14.54
2023-03-22T13:13:14.401Z,14.45
2023-03-22T13:15:42.248Z,14.41
2023-03-22T13:18:09.082Z,14.50
2023-03-22T13:20:35.454Z,14.52
2023-03-22T13:23:01.841Z,14.48
2023-03-22T13:25:28.207Z,14.46
2023-03-22T13:27:54.631Z,14.44
2023-03-22T13:30:21.051Z,14.51
2023-03-22T13:32:47.470Z,14.60
2023-03-22T13:35:23.493Z,14.65
2023-03-22T13:37:49.985Z,14.73
2023-03-22T13:40:16.337Z,14.79
2023-03-22T13:42:42.708Z,14.88
2023-03-22T13:45:09.072Z,14.91
2023-03-22T13:47:35.664Z,14.98
2023-03-22T13:50:06.117Z,15.01
2023-03-22T13:52:33.650Z,15.02
2023-03-22T13:54:59.998Z,15.09
2023-03-22T13:57:26.822Z,15.12
2023-03-22T14:00:03.102Z,15.21
2023-03-22T14:05:15.791Z,15.37
2023-03-22T14:07:42.316Z,15.25
2023-03-22T14:10:08.701Z,15.40
2023-03-22T14:12:35.080Z,15.52
2023-03-22T14:15:01.580Z,15.53
2023-03-22T14:17:28.075Z,15.52
2023-03-22T14:19:54.641Z,15.45
